sensor_id;sensor_type;location;lat;lon;timestamp;P1;durP1;ratioP1;P2;durP2;ratioP2
5460;SDS011;2753;49.196;8.286;2022-09-30T00:00:18;5.97;;;4.40;;
5460;SDS011;2753;49.196;8.286;2022-09-30T00:02:44;8.50;;;3.87;;
5460;SDS011;2753;49.196;8.286;2022-09-30T00:05:10;6.57;;;3.93;;
5460;SDS011;2753;49.196;8.286;2022-09-30T00:07:36;4.43;;;4.07;;
5460;SDS011;2753;49.196;8.286;2022-09-30T00:10:01;3.80;;;3.40;;
5460;SDS011;2753;49.196;8.286;2022-09-30T00:12:27;5.13;;;4.63;;
5460;SDS011;2753;49.196;8.286;2022-09-30T00:14:53;4.33;;;3.73;;
5460;SDS011;2753;49.196;8.286;2022-09-30T00:17:19;6.70;;;4.43;;
5460;SDS011;2753;49.196;8.286;2022-09-30T00:19:45;6.17;;;3.60;;
5460;SDS011;2753;49.196;8.286;2022-09-30T00:22:11;7.60;;;3.97;;
5460;SDS011;2753;49.196;8.286;2022-09-30T00:24:37;4.93;;;3.73;;
5460;SDS011;2753;49.196;8.286;2022-09-30T00:27:02;4.47;;;3.20;;
5460;SDS011;2753;49.196;8.286;2022-09-30T00:29:28;3.53;;;3.33;;
5460;SDS011;2753;49.196;8.286;2022-09-30T00:31:54;6.57;;;3.73;;
5460;SDS011;2753;49.196;8.286;2022-09-30T00:34:19;7.00;;;3.33;;
5460;SDS011;2753;49.196;8.286;2022-09-30T00:36:47;3.93;;;3.60;;
5460;SDS011;2753;49.196;8.286;2022-09-30T00:39:21;6.63;;;3.40;;
5460;SDS011;2753;49.196;8.286;2022-09-30T00:41:50;3.40;;;3.10;;
5460;SDS011;2753;49.196;8.286;2022-09-30T00:52:54;3.93;;;3.57;;
5460;SDS011;2753;49.196;8.286;2022-09-30T00:58:02;3.20;;;2.90;;
5460;SDS011;2753;49.196;8.286;2022-09-30T01:00:29;3.70;;;3.40;;
5460;SDS011;2753;49.196;8.286;2022-09-30T01:02:55;7.20;;;3.03;;
5460;SDS011;2753;49.196;8.286;2022-09-30T01:05:22;9.63;;;3.20;;
5460;SDS011;2753;49.196;8.286;2022-09-30T01:07:50;3.40;;;3.20;;
5460;SDS011;2753;49.196;8.286;2022-09-30T01:10:17;3.00;;;2.77;;
5460;SDS011;2753;49.196;8.286;2022-09-30T01:12:42;3.30;;;3.00;;
5460;SDS011;2753;49.196;8.286;2022-09-30T01:15:08;3.23;;;3.00;;
5460;SDS011;2753;49.196;8.286;2022-09-30T01:45:20;5.97;;;3.70;;
5460;SDS011;2753;49.196;8.286;2022-09-30T01:48:18;3.57;;;3.27;;
5460;SDS011;2753;49.196;8.286;2022-09-30T01:50:54;4.53;;;4.10;;
5460;SDS011;2753;49.196;8.286;2022-09-30T01:53:59;3.90;;;3.60;;
5460;SDS011;2753;49.196;8.286;2022-09-30T02:01:45;8.40;;;3.23;;
5460;SDS011;2753;49.196;8.286;2022-09-30T02:04:31;4.07;;;3.00;;
5460;SDS011;2753;49.196;8.286;2022-09-30T02:07:10;5.20;;;4.17;;
5460;SDS011;2753;49.196;8.286;2022-09-30T02:09:42;6.03;;;2.90;;
5460;SDS011;2753;49.196;8.286;2022-09-30T02:12:17;7.30;;;3.60;;
5460;SDS011;2753;49.196;8.286;2022-09-30T02:14:46;3.00;;;2.87;;
5460;SDS011;2753;49.196;8.286;2022-09-30T02:17:18;4.10;;;3.70;;
5460;SDS011;2753;49.196;8.286;2022-09-30T02:19:58;4.10;;;3.70;;
5460;SDS011;2753;49.196;8.286;2022-09-30T02:22:31;4.30;;;3.50;;
5460;SDS011;2753;49.196;8.286;2022-09-30T02:25:07;4.67;;;2.70;;
5460;SDS011;2753;49.196;8.286;2022-09-30T02:27:42;3.70;;;3.23;;
5460;SDS011;2753;49.196;8.286;2022-09-30T02:30:13;5.47;;;3.70;;
5460;SDS011;2753;49.196;8.286;2022-09-30T02:32:44;3.70;;;2.80;;
5460;SDS011;2753;49.196;8.286;2022-09-30T02:35:31;3.50;;;3.30;;
5460;SDS011;2753;49.196;8.286;2022-09-30T02:38:10;3.17;;;2.90;;
5460;SDS011;2753;49.196;8.286;2022-09-30T02:40:49;3.27;;;3.07;;
5460;SDS011;2753;49.196;8.286;2022-09-30T02:43:19;3.30;;;2.97;;
5460;SDS011;2753;49.196;8.286;2022-09-30T02:48:53;7.83;;;3.27;;
5460;SDS011;2753;49.196;8.286;2022-09-30T02:51:52;9.30;;;2.90;;
5460;SDS011;2753;49.196;8.286;2022-09-30T02:59:41;2.70;;;2.50;;
5460;SDS011;2753;49.196;8.286;2022-09-30T03:02:07;5.10;;;3.03;;
5460;SDS011;2753;49.196;8.286;2022-09-30T03:04:33;6.53;;;3.23;;
5460;SDS011;2753;49.196;8.286;2022-09-30T03:06:59;3.10;;;2.80;;
5460;SDS011;2753;49.196;8.286;2022-09-30T03:09:25;2.70;;;2.57;;
5460;SDS011;2753;49.196;8.286;2022-09-30T03:12:00;7.43;;;3.00;;
5460;SDS011;2753;49.196;8.286;2022-09-30T03:23:19;3.00;;;2.80;;
5460;SDS011;2753;49.196;8.286;2022-09-30T03:28:57;3.83;;;2.80;;
5460;SDS011;2753;49.196;8.286;2022-09-30T03:36:53;4.53;;;4.10;;
5460;SDS011;2753;49.196;8.286;2022-09-30T03:42:09;10.10;;;3.47;;
5460;SDS011;2753;49.196;8.286;2022-09-30T03:44:53;5.03;;;3.33;;
5460;SDS011;2753;49.196;8.286;2022-09-30T03:47:30;4.10;;;3.70;;
5460;SDS011;2753;49.196;8.286;2022-09-30T03:50:03;3.30;;;3.10;;
5460;SDS011;2753;49.196;8.286;2022-09-30T03:52:32;5.50;;;3.93;;
5460;SDS011;2753;49.196;8.286;2022-09-30T03:55:00;4.37;;;3.97;;
5460;SDS011;2753;49.196;8.286;2022-09-30T03:57:28;6.33;;;4.87;;
5460;SDS011;2753;49.196;8.286;2022-09-30T03:59:55;20.17;;;8.33;;
5460;SDS011;2753;49.196;8.286;2022-09-30T04:02:21;19.97;;;9.77;;
5460;SDS011;2753;49.196;8.286;2022-09-30T04:04:48;14.97;;;9.70;;
5460;SDS011;2753;49.196;8.286;2022-09-30T04:07:13;9.27;;;7.03;;
5460;SDS011;2753;49.196;8.286;2022-09-30T04:09:39;10.90;;;7.00;;
5460;SDS011;2753;49.196;8.286;2022-09-30T04:12:05;11.93;;;5.40;;
5460;SDS011;2753;49.196;8.286;2022-09-30T04:14:31;6.33;;;5.20;;
5460;SDS011;2753;49.196;8.286;2022-09-30T04:16:58;52.23;;;27.27;;
5460;SDS011;2753;49.196;8.286;2022-09-30T04:19:24;37.43;;;20.00;;
5460;SDS011;2753;49.196;8.286;2022-09-30T04:21:54;14.40;;;9.30;;
5460;SDS011;2753;49.196;8.286;2022-09-30T04:24:20;11.73;;;5.47;;
5460;SDS011;2753;49.196;8.286;2022-09-30T04:26:47;8.83;;;5.23;;
5460;SDS011;2753;49.196;8.286;2022-09-30T04:29:13;11.73;;;3.70;;
5460;SDS011;2753;49.196;8.286;2022-09-30T04:31:39;14.77;;;4.20;;
5460;SDS011;2753;49.196;8.286;2022-09-30T04:34:05;4.93;;;4.27;;
5460;SDS011;2753;49.196;8.286;2022-09-30T04:36:31;7.13;;;3.50;;
5460;SDS011;2753;49.196;8.286;2022-09-30T04:38:56;6.47;;;4.00;;
5460;SDS011;2753;49.196;8.286;2022-09-30T04:41:22;7.60;;;5.30;;
5460;SDS011;2753;49.196;8.286;2022-09-30T04:43:49;21.43;;;6.27;;
5460;SDS011;2753;49.196;8.286;2022-09-30T04:46:16;15.20;;;6.60;;
5460;SDS011;2753;49.196;8.286;2022-09-30T04:48:44;10.33;;;5.87;;
5460;SDS011;2753;49.196;8.286;2022-09-30T04:51:10;10.53;;;6.90;;
5460;SDS011;2753;49.196;8.286;2022-09-30T04:53:37;12.33;;;5.63;;
5460;SDS011;2753;49.196;8.286;2022-09-30T04:56:04;10.87;;;6.90;;
5460;SDS011;2753;49.196;8.286;2022-09-30T04:58:30;10.23;;;6.73;;
5460;SDS011;2753;49.196;8.286;2022-09-30T05:01:03;13.03;;;6.90;;
5460;SDS011;2753;49.196;8.286;2022-09-30T05:03:33;19.93;;;8.07;;
5460;SDS011;2753;49.196;8.286;2022-09-30T05:06:00;10.70;;;6.50;;
5460;SDS011;2753;49.196;8.286;2022-09-30T05:08:26;24.40;;;5.20;;
5460;SDS011;2753;49.196;8.286;2022-09-30T05:10:53;19.03;;;4.07;;
5460;SDS011;2753;49.196;8.286;2022-09-30T05:13:33;11.80;;;4.57;;
5460;SDS011;2753;49.196;8.286;2022-09-30T05:16:00;7.83;;;4.27;;
5460;SDS011;2753;49.196;8.286;2022-09-30T05:18:27;6.50;;;4.23;;
5460;SDS011;2753;49.196;8.286;2022-09-30T05:20:54;14.13;;;4.87;;
5460;SDS011;2753;49.196;8.286;2022-09-30T05:23:24;12.70;;;5.00;;
5460;SDS011;2753;49.196;8.286;2022-09-30T05:25:52;8.13;;;4.90;;
5460;SDS011;2753;49.196;8.286;2022-09-30T05:28:17;13.40;;;5.30;;
5460;SDS011;2753;49.196;8.286;2022-09-30T05:30:44;12.40;;;5.00;;
5460;SDS011;2753;49.196;8.286;2022-09-30T05:33:11;7.40;;;4.33;;
5460;SDS011;2753;49.196;8.286;2022-09-30T05:35:38;7.03;;;4.27;;
5460;SDS011;2753;49.196;8.286;2022-09-30T05:38:05;12.90;;;4.93;;
5460;SDS011;2753;49.196;8.286;2022-09-30T05:40:32;17.30;;;3.70;;
5460;SDS011;2753;49.196;8.286;2022-09-30T05:42:58;3.30;;;3.10;;
5460;SDS011;2753;49.196;8.286;2022-09-30T05:45:24;7.27;;;4.00;;
5460;SDS011;2753;49.196;8.286;2022-09-30T05:47:53;5.70;;;2.57;;
5460;SDS011;2753;49.196;8.286;2022-09-30T05:50:20;2.80;;;2.67;;
5460;SDS011;2753;49.196;8.286;2022-09-30T05:52:47;12.43;;;3.27;;
5460;SDS011;2753;49.196;8.286;2022-09-30T05:55:13;2.60;;;2.40;;
5460;SDS011;2753;49.196;8.286;2022-09-30T05:57:40;4.07;;;2.73;;
5460;SDS011;2753;49.196;8.286;2022-09-30T06:00:07;2.70;;;2.50;;
5460;SDS011;2753;49.196;8.286;2022-09-30T06:02:33;4.40;;;2.83;;
5460;SDS011;2753;49.196;8.286;2022-09-30T06:05:02;11.17;;;3.67;;
5460;SDS011;2753;49.196;8.286;2022-09-30T06:07:32;4.53;;;3.17;;
5460;SDS011;2753;49.196;8.286;2022-09-30T06:09:58;7.97;;;3.90;;
5460;SDS011;2753;49.196;8.286;2022-09-30T06:12:25;12.00;;;4.47;;
5460;SDS011;2753;49.196;8.286;2022-09-30T06:14:52;6.43;;;3.50;;
5460;SDS011;2753;49.196;8.286;2022-09-30T06:17:18;33.87;;;13.00;;
5460;SDS011;2753;49.196;8.286;2022-09-30T06:19:44;51.20;;;19.13;;
5460;SDS011;2753;49.196;8.286;2022-09-30T06:22:10;38.30;;;14.40;;
5460;SDS011;2753;49.196;8.286;2022-09-30T06:24:36;22.03;;;8.80;;
5460;SDS011;2753;49.196;8.286;2022-09-30T06:27:02;13.23;;;6.87;;
5460;SDS011;2753;49.196;8.286;2022-09-30T06:29:28;10.40;;;4.97;;
5460;SDS011;2753;49.196;8.286;2022-09-30T06:31:54;8.40;;;4.23;;
5460;SDS011;2753;49.196;8.286;2022-09-30T06:34:21;7.83;;;4.40;;
5460;SDS011;2753;49.196;8.286;2022-09-30T06:36:47;4.97;;;4.27;;
5460;SDS011;2753;49.196;8.286;2022-09-30T06:39:13;12.00;;;4.90;;
5460;SDS011;2753;49.196;8.286;2022-09-30T06:41:39;5.57;;;4.50;;
5460;SDS011;2753;49.196;8.286;2022-09-30T06:44:08;10.40;;;4.10;;
5460;SDS011;2753;49.196;8.286;2022-09-30T06:46:34;5.10;;;4.20;;
5460;SDS011;2753;49.196;8.286;2022-09-30T06:49:00;5.07;;;4.43;;
5460;SDS011;2753;49.196;8.286;2022-09-30T06:51:28;5.90;;;4.53;;
5460;SDS011;2753;49.196;8.286;2022-09-30T06:53:57;5.97;;;4.87;;
5460;SDS011;2753;49.196;8.286;2022-09-30T06:56:23;9.30;;;4.73;;
5460;SDS011;2753;49.196;8.286;2022-09-30T06:58:48;12.60;;;5.10;;
5460;SDS011;2753;49.196;8.286;2022-09-30T07:01:14;7.70;;;4.90;;
5460;SDS011;2753;49.196;8.286;2022-09-30T07:03:44;8.00;;;5.13;;
5460;SDS011;2753;49.196;8.286;2022-09-30T07:06:11;11.43;;;4.37;;
5460;SDS011;2753;49.196;8.286;2022-09-30T07:08:38;11.40;;;5.20;;
5460;SDS011;2753;49.196;8.286;2022-09-30T07:11:05;6.50;;;4.60;;
5460;SDS011;2753;49.196;8.286;2022-09-30T07:13:44;6.57;;;3.83;;
5460;SDS011;2753;49.196;8.286;2022-09-30T07:16:11;17.63;;;4.70;;
5460;SDS011;2753;49.196;8.286;2022-09-30T07:18:38;7.40;;;4.70;;
5460;SDS011;2753;49.196;8.286;2022-09-30T07:21:09;9.90;;;5.10;;
5460;SDS011;2753;49.196;8.286;2022-09-30T07:23:36;7.13;;;4.90;;
5460;SDS011;2753;49.196;8.286;2022-09-30T07:26:02;7.27;;;5.50;;
5460;SDS011;2753;49.196;8.286;2022-09-30T07:28:31;8.53;;;5.03;;
5460;SDS011;2753;49.196;8.286;2022-09-30T07:30:59;6.20;;;4.97;;
5460;SDS011;2753;49.196;8.286;2022-09-30T07:33:30;18.07;;;9.00;;
5460;SDS011;2753;49.196;8.286;2022-09-30T07:35:57;13.67;;;8.40;;
5460;SDS011;2753;49.196;8.286;2022-09-30T07:38:26;14.67;;;7.73;;
5460;SDS011;2753;49.196;8.286;2022-09-30T07:43:21;6.90;;;6.03;;
5460;SDS011;2753;49.196;8.286;2022-09-30T07:45:47;7.70;;;6.03;;
5460;SDS011;2753;49.196;8.286;2022-09-30T07:48:13;5.90;;;5.40;;
5460;SDS011;2753;49.196;8.286;2022-09-30T07:50:58;10.20;;;6.47;;
5460;SDS011;2753;49.196;8.286;2022-09-30T07:53:24;7.07;;;6.20;;
5460;SDS011;2753;49.196;8.286;2022-09-30T07:55:50;6.83;;;6.00;;
5460;SDS011;2753;49.196;8.286;2022-09-30T07:58:16;10.23;;;6.10;;
5460;SDS011;2753;49.196;8.286;2022-09-30T08:00:42;10.97;;;5.57;;
5460;SDS011;2753;49.196;8.286;2022-09-30T08:03:08;13.33;;;6.37;;
5460;SDS011;2753;49.196;8.286;2022-09-30T08:05:40;8.50;;;6.50;;
5460;SDS011;2753;49.196;8.286;2022-09-30T08:08:09;12.43;;;7.00;;
5460;SDS011;2753;49.196;8.286;2022-09-30T08:10:39;9.80;;;6.37;;
5460;SDS011;2753;49.196;8.286;2022-09-30T08:13:04;12.97;;;6.30;;
5460;SDS011;2753;49.196;8.286;2022-09-30T08:15:31;10.70;;;5.90;;
5460;SDS011;2753;49.196;8.286;2022-09-30T08:17:57;13.00;;;7.53;;
5460;SDS011;2753;49.196;8.286;2022-09-30T08:20:23;10.13;;;6.63;;
5460;SDS011;2753;49.196;8.286;2022-09-30T08:22:57;18.20;;;8.90;;
5460;SDS011;2753;49.196;8.286;2022-09-30T08:25:23;17.17;;;8.07;;
5460;SDS011;2753;49.196;8.286;2022-09-30T08:27:50;15.83;;;8.90;;
5460;SDS011;2753;49.196;8.286;2022-09-30T08:30:16;15.53;;;10.17;;
5460;SDS011;2753;49.196;8.286;2022-09-30T08:32:41;23.13;;;10.50;;
5460;SDS011;2753;49.196;8.286;2022-09-30T08:35:07;12.40;;;7.93;;
5460;SDS011;2753;49.196;8.286;2022-09-30T08:37:33;9.47;;;8.00;;
5460;SDS011;2753;49.196;8.286;2022-09-30T08:39:59;12.80;;;8.50;;
5460;SDS011;2753;49.196;8.286;2022-09-30T08:48:30;13.33;;;8.43;;
5460;SDS011;2753;49.196;8.286;2022-09-30T08:53:35;12.40;;;8.93;;
5460;SDS011;2753;49.196;8.286;2022-09-30T08:56:05;11.80;;;9.50;;
5460;SDS011;2753;49.196;8.286;2022-09-30T08:58:33;17.17;;;10.07;;
5460;SDS011;2753;49.196;8.286;2022-09-30T09:03:39;18.67;;;10.33;;
5460;SDS011;2753;49.196;8.286;2022-09-30T09:09:34;18.03;;;9.87;;
5460;SDS011;2753;49.196;8.286;2022-09-30T09:15:18;18.10;;;10.80;;
5460;SDS011;2753;49.196;8.286;2022-09-30T09:20:29;19.70;;;14.10;;
5460;SDS011;2753;49.196;8.286;2022-09-30T09:23:01;22.33;;;13.77;;
5460;SDS011;2753;49.196;8.286;2022-09-30T09:25:28;25.73;;;13.47;;
5460;SDS011;2753;49.196;8.286;2022-09-30T09:27:55;24.77;;;12.20;;
5460;SDS011;2753;49.196;8.286;2022-09-30T09:30:24;21.30;;;12.80;;
5460;SDS011;2753;49.196;8.286;2022-09-30T09:32:58;22.13;;;13.07;;
5460;SDS011;2753;49.196;8.286;2022-09-30T09:47:03;24.10;;;14.63;;
5460;SDS011;2753;49.196;8.286;2022-09-30T09:55:18;19.90;;;12.60;;
5460;SDS011;2753;49.196;8.286;2022-09-30T09:57:46;22.87;;;13.60;;
5460;SDS011;2753;49.196;8.286;2022-09-30T10:00:22;18.17;;;14.13;;
5460;SDS011;2753;49.196;8.286;2022-09-30T10:03:12;26.83;;;15.03;;
5460;SDS011;2753;49.196;8.286;2022-09-30T10:05:43;27.93;;;14.40;;
5460;SDS011;2753;49.196;8.286;2022-09-30T10:08:15;18.53;;;13.03;;
5460;SDS011;2753;49.196;8.286;2022-09-30T10:13:45;26.63;;;14.00;;
5460;SDS011;2753;49.196;8.286;2022-09-30T10:16:25;26.57;;;13.10;;
5460;SDS011;2753;49.196;8.286;2022-09-30T10:18:52;22.83;;;12.37;;
5460;SDS011;2753;49.196;8.286;2022-09-30T10:21:19;18.50;;;13.50;;
5460;SDS011;2753;49.196;8.286;2022-09-30T10:23:49;25.93;;;12.70;;
5460;SDS011;2753;49.196;8.286;2022-09-30T10:36:47;16.03;;;9.80;;
5460;SDS011;2753;49.196;8.286;2022-09-30T10:39:30;12.87;;;10.37;;
5460;SDS011;2753;49.196;8.286;2022-09-30T10:42:07;39.33;;;12.37;;
5460;SDS011;2753;49.196;8.286;2022-09-30T10:47:34;20.23;;;11.40;;
5460;SDS011;2753;49.196;8.286;2022-09-30T10:50:12;15.13;;;10.77;;
5460;SDS011;2753;49.196;8.286;2022-09-30T10:55:41;19.63;;;10.77;;
5460;SDS011;2753;49.196;8.286;2022-09-30T10:58:25;14.60;;;10.00;;
5460;SDS011;2753;49.196;8.286;2022-09-30T11:03:31;15.80;;;9.83;;
5460;SDS011;2753;49.196;8.286;2022-09-30T11:06:03;15.90;;;10.70;;
5460;SDS011;2753;49.196;8.286;2022-09-30T11:13:42;15.70;;;8.93;;
5460;SDS011;2753;49.196;8.286;2022-09-30T11:21:43;15.73;;;10.67;;
5460;SDS011;2753;49.196;8.286;2022-09-30T11:24:43;16.90;;;11.57;;
5460;SDS011;2753;49.196;8.286;2022-09-30T11:41:57;13.00;;;9.23;;
5460;SDS011;2753;49.196;8.286;2022-09-30T11:52:18;14.40;;;7.50;;
5460;SDS011;2753;49.196;8.286;2022-09-30T12:00:25;12.43;;;8.50;;
5460;SDS011;2753;49.196;8.286;2022-09-30T12:02:53;8.13;;;7.27;;
5460;SDS011;2753;49.196;8.286;2022-09-30T12:05:26;11.60;;;7.27;;
5460;SDS011;2753;49.196;8.286;2022-09-30T12:08:16;9.80;;;6.17;;
5460;SDS011;2753;49.196;8.286;2022-09-30T12:10:52;10.53;;;8.47;;
5460;SDS011;2753;49.196;8.286;2022-09-30T12:13:24;11.27;;;7.30;;
5460;SDS011;2753;49.196;8.286;2022-09-30T12:15:55;7.87;;;7.07;;
5460;SDS011;2753;49.196;8.286;2022-09-30T12:20:59;8.13;;;7.20;;
5460;SDS011;2753;49.196;8.286;2022-09-30T12:26:04;8.30;;;7.13;;
5460;SDS011;2753;49.196;8.286;2022-09-30T12:50:13;9.50;;;4.50;;
5460;SDS011;2753;49.196;8.286;2022-09-30T12:52:44;3.30;;;3.00;;
5460;SDS011;2753;49.196;8.286;2022-09-30T12:55:43;4.03;;;3.13;;
5460;SDS011;2753;49.196;8.286;2022-09-30T12:58:03;5.17;;;3.70;;
5460;SDS011;2753;49.196;8.286;2022-09-30T13:00:31;8.70;;;3.60;;
5460;SDS011;2753;49.196;8.286;2022-09-30T13:03:03;9.33;;;5.00;;
5460;SDS011;2753;49.196;8.286;2022-09-30T13:10:44;7.20;;;4.60;;
5460;SDS011;2753;49.196;8.286;2022-09-30T13:15:38;7.80;;;5.20;;
5460;SDS011;2753;49.196;8.286;2022-09-30T13:28:53;6.00;;;3.40;;
5460;SDS011;2753;49.196;8.286;2022-09-30T13:34:21;3.40;;;3.03;;
5460;SDS011;2753;49.196;8.286;2022-09-30T13:39:29;3.67;;;3.40;;
5460;SDS011;2753;49.196;8.286;2022-09-30T13:47:18;4.47;;;3.67;;
5460;SDS011;2753;49.196;8.286;2022-09-30T13:52:40;8.33;;;3.80;;
5460;SDS011;2753;49.196;8.286;2022-09-30T13:55:10;3.67;;;3.00;;
5460;SDS011;2753;49.196;8.286;2022-09-30T14:00:17;8.00;;;4.20;;
5460;SDS011;2753;49.196;8.286;2022-09-30T14:11:31;4.13;;;3.47;;
5460;SDS011;2753;49.196;8.286;2022-09-30T14:14:07;5.60;;;3.10;;
5460;SDS011;2753;49.196;8.286;2022-09-30T14:22:06;8.73;;;3.73;;
5460;SDS011;2753;49.196;8.286;2022-09-30T14:24:35;4.83;;;3.17;;
5460;SDS011;2753;49.196;8.286;2022-09-30T14:27:14;4.77;;;3.00;;
5460;SDS011;2753;49.196;8.286;2022-09-30T14:32:48;5.50;;;3.20;;
5460;SDS011;2753;49.196;8.286;2022-09-30T14:37:58;4.93;;;2.93;;
5460;SDS011;2753;49.196;8.286;2022-09-30T14:40:30;4.93;;;3.00;;
5460;SDS011;2753;49.196;8.286;2022-09-30T14:43:01;3.30;;;2.90;;
5460;SDS011;2753;49.196;8.286;2022-09-30T14:45:36;4.27;;;2.83;;
5460;SDS011;2753;49.196;8.286;2022-09-30T14:48:09;7.00;;;3.20;;
5460;SDS011;2753;49.196;8.286;2022-09-30T14:51:03;3.87;;;3.57;;
5460;SDS011;2753;49.196;8.286;2022-09-30T14:53:36;6.37;;;4.63;;
5460;SDS011;2753;49.196;8.286;2022-09-30T14:56:19;3.80;;;3.40;;
5460;SDS011;2753;49.196;8.286;2022-09-30T14:58:56;6.40;;;3.90;;
5460;SDS011;2753;49.196;8.286;2022-09-30T15:01:28;9.40;;;5.90;;
5460;SDS011;2753;49.196;8.286;2022-09-30T15:04:00;15.57;;;13.40;;
5460;SDS011;2753;49.196;8.286;2022-09-30T15:06:34;10.93;;;7.60;;
5460;SDS011;2753;49.196;8.286;2022-09-30T15:09:05;6.30;;;5.07;;
5460;SDS011;2753;49.196;8.286;2022-09-30T15:11:38;3.43;;;3.20;;
5460;SDS011;2753;49.196;8.286;2022-09-30T15:17:02;9.10;;;3.50;;
5460;SDS011;2753;49.196;8.286;2022-09-30T15:19:31;6.50;;;4.10;;
5460;SDS011;2753;49.196;8.286;2022-09-30T15:22:06;10.60;;;6.17;;
5460;SDS011;2753;49.196;8.286;2022-09-30T15:24:33;6.90;;;5.00;;
5460;SDS011;2753;49.196;8.286;2022-09-30T15:27:00;16.33;;;9.23;;
5460;SDS011;2753;49.196;8.286;2022-09-30T15:29:27;26.97;;;14.93;;
5460;SDS011;2753;49.196;8.286;2022-09-30T15:34:19;8.40;;;3.90;;
5460;SDS011;2753;49.196;8.286;2022-09-30T15:36:47;4.80;;;3.80;;
5460;SDS011;2753;49.196;8.286;2022-09-30T15:39:21;5.53;;;2.80;;
5460;SDS011;2753;49.196;8.286;2022-09-30T15:42:11;6.30;;;3.70;;
5460;SDS011;2753;49.196;8.286;2022-09-30T15:44:52;9.57;;;5.40;;
5460;SDS011;2753;49.196;8.286;2022-09-30T15:47:18;4.83;;;4.00;;
5460;SDS011;2753;49.196;8.286;2022-09-30T15:49:45;4.97;;;4.03;;
5460;SDS011;2753;49.196;8.286;2022-09-30T15:52:27;2.37;;;2.20;;
5460;SDS011;2753;49.196;8.286;2022-09-30T15:54:53;2.97;;;2.20;;
5460;SDS011;2753;49.196;8.286;2022-09-30T15:57:37;12.23;;;2.77;;
5460;SDS011;2753;49.196;8.286;2022-09-30T16:00:04;6.43;;;2.80;;
5460;SDS011;2753;49.196;8.286;2022-09-30T16:02:34;6.90;;;2.90;;
5460;SDS011;2753;49.196;8.286;2022-09-30T16:05:00;5.40;;;2.67;;
5460;SDS011;2753;49.196;8.286;2022-09-30T16:07:27;5.30;;;2.60;;
5460;SDS011;2753;49.196;8.286;2022-09-30T16:09:55;5.43;;;2.57;;
5460;SDS011;2753;49.196;8.286;2022-09-30T16:12:24;11.57;;;2.60;;
5460;SDS011;2753;49.196;8.286;2022-09-30T16:14:54;6.93;;;3.00;;
5460;SDS011;2753;49.196;8.286;2022-09-30T16:17:32;17.00;;;3.03;;
5460;SDS011;2753;49.196;8.286;2022-09-30T16:28:10;7.00;;;3.30;;
5460;SDS011;2753;49.196;8.286;2022-09-30T16:33:11;11.47;;;5.40;;
5460;SDS011;2753;49.196;8.286;2022-09-30T16:35:38;6.73;;;5.57;;
5460;SDS011;2753;49.196;8.286;2022-09-30T16:38:06;7.63;;;5.20;;
5460;SDS011;2753;49.196;8.286;2022-09-30T16:40:34;13.47;;;6.10;;
5460;SDS011;2753;49.196;8.286;2022-09-30T16:43:01;7.93;;;5.80;;
5460;SDS011;2753;49.196;8.286;2022-09-30T16:45:28;9.87;;;6.90;;
5460;SDS011;2753;49.196;8.286;2022-09-30T16:47:55;13.00;;;5.50;;
5460;SDS011;2753;49.196;8.286;2022-09-30T16:53:12;5.27;;;4.27;;
5460;SDS011;2753;49.196;8.286;2022-09-30T16:55:37;5.73;;;4.30;;
5460;SDS011;2753;49.196;8.286;2022-09-30T16:58:04;8.80;;;5.30;;
5460;SDS011;2753;49.196;8.286;2022-09-30T17:00:30;10.63;;;8.80;;
5460;SDS011;2753;49.196;8.286;2022-09-30T17:02:56;15.17;;;9.03;;
5460;SDS011;2753;49.196;8.286;2022-09-30T17:05:23;17.90;;;6.13;;
5460;SDS011;2753;49.196;8.286;2022-09-30T17:07:52;13.50;;;6.53;;
5460;SDS011;2753;49.196;8.286;2022-09-30T17:10:26;12.73;;;4.93;;
5460;SDS011;2753;49.196;8.286;2022-09-30T17:12:54;12.40;;;5.27;;
5460;SDS011;2753;49.196;8.286;2022-09-30T17:15:22;17.83;;;7.90;;
5460;SDS011;2753;49.196;8.286;2022-09-30T17:17:47;25.63;;;10.50;;
5460;SDS011;2753;49.196;8.286;2022-09-30T17:20:13;15.40;;;9.10;;
5460;SDS011;2753;49.196;8.286;2022-09-30T17:22:39;21.93;;;9.00;;
5460;SDS011;2753;49.196;8.286;2022-09-30T17:25:05;26.20;;;14.60;;
5460;SDS011;2753;49.196;8.286;2022-09-30T17:27:32;21.10;;;14.73;;
5460;SDS011;2753;49.196;8.286;2022-09-30T17:29:57;21.00;;;11.27;;
5460;SDS011;2753;49.196;8.286;2022-09-30T17:32:25;19.10;;;11.37;;
5460;SDS011;2753;49.196;8.286;2022-09-30T17:34:51;19.93;;;9.90;;
5460;SDS011;2753;49.196;8.286;2022-09-30T17:37:18;8.07;;;7.17;;
5460;SDS011;2753;49.196;8.286;2022-09-30T17:39:44;12.10;;;8.80;;
5460;SDS011;2753;49.196;8.286;2022-09-30T17:42:13;14.43;;;8.87;;
5460;SDS011;2753;49.196;8.286;2022-09-30T17:44:58;15.70;;;8.83;;
5460;SDS011;2753;49.196;8.286;2022-09-30T17:47:24;17.63;;;9.47;;
5460;SDS011;2753;49.196;8.286;2022-09-30T17:49:50;16.90;;;9.70;;
5460;SDS011;2753;49.196;8.286;2022-09-30T17:52:16;17.10;;;10.10;;
5460;SDS011;2753;49.196;8.286;2022-09-30T17:54:42;19.37;;;12.53;;
5460;SDS011;2753;49.196;8.286;2022-09-30T17:57:08;18.43;;;11.50;;
5460;SDS011;2753;49.196;8.286;2022-09-30T17:59:34;12.37;;;11.17;;
5460;SDS011;2753;49.196;8.286;2022-09-30T18:01:59;25.80;;;14.70;;
5460;SDS011;2753;49.196;8.286;2022-09-30T18:04:25;22.20;;;14.13;;
5460;SDS011;2753;49.196;8.286;2022-09-30T18:06:52;30.10;;;14.40;;
5460;SDS011;2753;49.196;8.286;2022-09-30T18:09:18;20.20;;;12.37;;
5460;SDS011;2753;49.196;8.286;2022-09-30T18:11:44;17.80;;;11.93;;
5460;SDS011;2753;49.196;8.286;2022-09-30T18:14:10;19.80;;;10.03;;
5460;SDS011;2753;49.196;8.286;2022-09-30T18:16:36;15.10;;;10.60;;
5460;SDS011;2753;49.196;8.286;2022-09-30T18:19:03;19.70;;;10.10;;
5460;SDS011;2753;49.196;8.286;2022-09-30T18:21:31;13.10;;;8.80;;
5460;SDS011;2753;49.196;8.286;2022-09-30T18:23:58;17.57;;;9.63;;
5460;SDS011;2753;49.196;8.286;2022-09-30T18:26:25;23.37;;;13.43;;
5460;SDS011;2753;49.196;8.286;2022-09-30T18:28:55;31.77;;;17.27;;
5460;SDS011;2753;49.196;8.286;2022-09-30T18:31:22;28.97;;;17.93;;
5460;SDS011;2753;49.196;8.286;2022-09-30T18:34:00;33.17;;;16.40;;
5460;SDS011;2753;49.196;8.286;2022-09-30T18:36:26;31.03;;;17.37;;
5460;SDS011;2753;49.196;8.286;2022-09-30T18:38:53;30.80;;;16.80;;
5460;SDS011;2753;49.196;8.286;2022-09-30T18:41:22;38.00;;;21.77;;
5460;SDS011;2753;49.196;8.286;2022-09-30T18:43:52;38.10;;;20.93;;
5460;SDS011;2753;49.196;8.286;2022-09-30T18:46:23;50.30;;;23.63;;
5460;SDS011;2753;49.196;8.286;2022-09-30T18:48:50;43.13;;;24.17;;
5460;SDS011;2753;49.196;8.286;2022-09-30T18:51:18;32.43;;;19.47;;
5460;SDS011;2753;49.196;8.286;2022-09-30T18:53:45;32.60;;;17.73;;
5460;SDS011;2753;49.196;8.286;2022-09-30T18:56:15;36.17;;;17.77;;
5460;SDS011;2753;49.196;8.286;2022-09-30T18:58:47;29.73;;;17.60;;
5460;SDS011;2753;49.196;8.286;2022-09-30T19:01:13;29.53;;;15.97;;
5460;SDS011;2753;49.196;8.286;2022-09-30T19:03:39;33.47;;;14.73;;
5460;SDS011;2753;49.196;8.286;2022-09-30T19:06:06;23.03;;;13.87;;
5460;SDS011;2753;49.196;8.286;2022-09-30T19:08:32;25.40;;;15.07;;
5460;SDS011;2753;49.196;8.286;2022-09-30T19:10:58;24.30;;;15.27;;
5460;SDS011;2753;49.196;8.286;2022-09-30T19:13:24;35.87;;;16.67;;
5460;SDS011;2753;49.196;8.286;2022-09-30T19:15:52;27.83;;;15.50;;
5460;SDS011;2753;49.196;8.286;2022-09-30T19:18:18;34.20;;;15.70;;
5460;SDS011;2753;49.196;8.286;2022-09-30T19:20:45;22.13;;;14.93;;
5460;SDS011;2753;49.196;8.286;2022-09-30T19:23:10;24.10;;;15.17;;
5460;SDS011;2753;49.196;8.286;2022-09-30T19:25:36;30.43;;;14.47;;
5460;SDS011;2753;49.196;8.286;2022-09-30T19:28:06;26.00;;;15.53;;
5460;SDS011;2753;49.196;8.286;2022-09-30T19:30:32;28.43;;;16.63;;
5460;SDS011;2753;49.196;8.286;2022-09-30T19:32:58;24.50;;;14.63;;
5460;SDS011;2753;49.196;8.286;2022-09-30T19:35:24;29.83;;;15.10;;
5460;SDS011;2753;49.196;8.286;2022-09-30T19:37:51;25.97;;;12.73;;
5460;SDS011;2753;49.196;8.286;2022-09-30T19:40:18;26.47;;;15.13;;
5460;SDS011;2753;49.196;8.286;2022-09-30T19:42:44;27.10;;;16.10;;
5460;SDS011;2753;49.196;8.286;2022-09-30T19:45:12;30.83;;;17.20;;
5460;SDS011;2753;49.196;8.286;2022-09-30T19:47:40;27.13;;;16.70;;
5460;SDS011;2753;49.196;8.286;2022-09-30T19:50:05;27.53;;;17.30;;
5460;SDS011;2753;49.196;8.286;2022-09-30T19:52:32;25.63;;;17.17;;